Date,TemperatureHighF,TemperatureAvgF,TemperatureLowF,DewpointHighF,DewpointAvgF,DewpointLowF,HumidityHigh,HumidityAvg,HumidityLow,PressureMaxIn,PressureMinIn,WindSpeedMaxMPH,WindSpeedAvgMPH,GustSpeedMaxMPH,PrecipitationSumIn
2013-1-1,39.9,34.6,24.1,22.6,16.0,4.8,57,46,35,0.00,0.00,13,5,17,0.00
2013-1-2,33.4,26.8,21.7,10.9,6.1,2.8,51,41,33,0.00,0.00,9,3,15,0.00
2013-1-3,41.0,29.1,21.0,11.5,8.7,6.0,55,43,28,0.00,0.00,11,3,13,0.00
2013-1-4,40.8,33.6,30.0,17.6,13.9,11.3,52,44,33,0.00,0.00,11,6,16,0.00
2013-1-5,52.9,37.0,30.2,19.1,14.7,10.1,56,41,26,0.00,0.00,12,3,19,0.00
2013-1-6,49.5,38.3,31.3,26.2,20.1,16.5,75,49,30,0.00,0.00,9,3,11,0.00
2013-1-7,55.6,39.6,29.3,23.0,18.1,11.4,63,44,25,0.00,0.00,8,2,13,0.00
2013-1-8,54.3,38.2,27.0,24.0,20.2,15.3,74,50,28,0.00,0.00,6,2,9,0.00
2013-1-9,45.7,37.8,28.0,29.9,25.0,21.5,78,61,44,0.00,0.00,9,2,17,0.00
2013-1-10,55.8,42.5,36.0,22.7,18.0,14.7,49,38,25,0.00,0.00,11,4,14,0.00
2013-1-11,41.2,37.8,32.5,39.0,27.7,18.1,97,69,46,0.00,0.00,5,0,6,0.31
2013-1-12,46.6,43.6,40.3,44.5,42.4,39.0,98,95,86,0.00,0.00,4,0,5,0.04
2013-1-13,46.4,45.1,43.5,45.9,44.6,43.0,98,98,98,0.00,0.00,4,0,5,0.00
2013-1-14,55.4,47.5,38.7,51.8,39.0,22.9,98,76,41,0.00,0.00,7,2,15,0.08
2013-1-15,39.0,36.7,34.7,33.2,25.7,20.5,89,66,49,0.00,0.00,6,2,8,0.12
2013-1-16,35.1,33.1,31.5,33.6,30.7,24.9,98,91,74,0.00,0.00,8,2,8,0.00
2013-1-17,35.8,35.1,34.7,31.7,29.8,26.9,88,81,70,0.00,0.00,4,2,6,0.00
2013-1-22,23.4,22.8,21.9,-7.6,-8.1,-8.5,25,25,24,0.00,0.00,15,11,17,0.00
2013-1-26,29.5,24.0,16.5,5.9,3.9,2.3,54,42,35,0.00,0.00,10,4,10,0.00
2013-1-30,37.2,37.2,37.2,36.7,36.7,36.7,98,98,98,0.00,40.00,0,0,3,0.00
2013-3-7,34.9,34.9,34.9,31.1,31.1,31.1,86,86,86,0.00,40.00,0,0,9,0.00
2013-3-8,40.6,37.2,33.8,31.2,27.9,24.8,77,69,62,0.00,0.00,11,3,19,0.20
2013-3-9,67.1,44.9,31.6,24.6,17.4,6.8,64,37,15,0.00,0.00,8,4,13,0.00
2013-3-10,57.9,43.4,32.0,30.7,23.8,11.6,74,48,27,0.00,40.00,8,2,10,0.00
2013-3-11,57.0,46.3,38.1,47.0,37.5,30.6,95,74,41,0.00,0.00,8,3,13,0.00
2013-3-12,54.1,49.6,41.7,53.0,45.6,31.4,98,87,63,0.00,0.00,11,3,16,0.83
2013-3-13,55.6,43.0,36.1,31.9,22.7,14.9,69,47,23,0.00,0.00,11,3,14,0.00
2013-3-14,44.8,33.5,27.0,19.2,7.4,0.3,51,34,21,0.00,0.00,16,7,24,0.00
2013-3-15,43.9,36.6,28.0,22.4,12.3,3.3,48,36,30,0.00,0.00,11,5,16,0.00
2013-3-16,39.9,35.6,33.1,27.6,19.7,11.9,76,54,33,0.00,0.00,5,1,12,0.00
2013-3-17,41.7,33.6,26.8,25.9,12.0,5.0,72,42,29,0.00,0.00,8,3,15,0.04
2013-3-18,37.9,31.1,24.8,27.7,12.2,2.0,83,48,30,0.00,0.00,8,3,9,0.00
2013-3-19,55.8,38.8,32.5,32.5,28.8,20.9,88,70,31,0.00,0.00,8,3,14,0.51
2013-3-20,46.4,36.9,30.0,21.3,12.9,9.9,56,38,27,0.00,0.00,11,4,17,0.00
2013-3-21,48.7,36.2,30.0,23.7,11.3,3.1,67,37,22,0.00,0.00,8,4,12,0.00
2013-3-22,44.2,34.2,27.3,16.8,10.6,4.9,49,37,30,0.00,0.00,11,4,16,0.00
2013-3-23,48.2,38.3,32.5,16.2,13.0,9.6,46,36,27,0.00,0.00,15,6,24,0.00
2013-3-24,55.6,40.8,30.6,20.2,14.9,11.4,47,35,23,0.00,0.00,9,3,13,0.00
2013-3-25,46.0,40.0,37.2,30.8,20.4,16.3,72,46,35,0.00,0.00,9,3,16,0.00
2013-3-26,56.7,43.4,35.8,25.0,20.1,16.3,59,41,25,0.00,0.00,11,2,15,0.00
2013-3-27,59.4,43.4,34.5,29.5,19.4,14.7,63,40,22,0.00,0.00,9,4,15,0.00
2013-3-28,53.6,43.6,35.4,25.6,22.4,20.5,59,44,30,0.00,0.00,10,4,14,0.00
2013-3-29,58.5,46.4,37.9,23.1,21.1,17.5,52,38,24,0.00,0.00,8,4,14,0.00
2013-3-30,67.6,48.1,34.9,24.3,19.5,11.2,64,37,15,0.00,0.00,11,2,13,0.00
2013-3-31,55.6,44.8,34.9,43.0,25.0,14.4,89,48,26,0.00,0.00,13,2,15,0.16
2013-4-1,61.3,47.7,36.1,43.8,31.7,5.7,96,60,26,0.00,0.00,14,4,19,0.00
2013-4-2,47.8,37.4,31.1,10.4,6.3,2.0,40,28,19,0.00,0.00,14,5,20,0.00
2013-4-3,52.3,38.2,31.1,12.1,6.1,1.1,34,26,18,0.00,0.00,16,6,21,0.00
2013-4-4,58.3,42.3,30.0,21.8,12.8,6.5,42,31,17,0.00,0.00,11,4,17,0.00
2013-4-5,67.8,49.7,38.8,21.3,16.4,8.4,45,29,15,0.00,0.00,11,4,19,0.00
2013-4-6,63.0,44.6,34.0,22.8,11.3,6.6,47,27,13,0.00,0.00,9,4,18,0.00
2013-4-7,64.2,47.9,37.4,37.2,26.1,17.0,58,44,22,0.00,0.00,10,4,15,0.00
2013-4-8,79.5,60.8,45.7,39.5,34.5,25.7,79,42,15,0.00,0.00,8,2,11,0.00
2013-4-9,87.3,68.1,53.1,43.7,34.3,22.2,67,35,11,0.00,0.00,13,3,19,0.00
2013-4-10,84.4,64.8,54.1,56.7,43.4,29.4,94,51,24,0.00,0.00,8,2,15,0.59
2013-4-11,68.9,57.6,47.5,58.3,43.7,30.6,98,65,33,0.00,0.00,8,3,11,0.04
2013-4-12,47.5,43.7,40.5,41.0,33.5,27.9,87,68,50,0.00,0.00,11,5,15,0.31
2013-4-13,61.3,54.8,46.8,36.7,24.8,22.1,68,32,25,0.00,0.00,8,4,15,0.04
2013-4-14,65.3,52.8,46.4,26.9,22.9,18.9,44,32,20,0.00,0.00,11,4,14,0.00
2013-4-15,65.1,51.8,41.7,27.4,22.5,18.0,48,33,23,0.00,0.00,8,3,12,0.00
2013-4-16,66.6,57.5,48.2,49.0,40.8,28.5,64,54,43,0.00,0.00,11,4,13,0.00
2013-4-17,82.0,65.1,54.5,54.9,33.7,24.4,84,37,14,0.00,0.00,9,3,11,0.00
2013-4-18,61.2,54.3,48.2,54.3,37.1,24.7,98,56,26,0.00,0.00,9,3,15,0.00
2013-4-19,77.0,64.8,54.9,62.0,56.2,52.0,98,76,42,0.00,0.00,10,4,17,0.51
2013-4-20,64.6,53.2,43.7,49.8,27.0,13.5,90,41,18,0.00,0.00,13,5,17,0.16
2013-4-21,65.5,47.8,36.0,21.9,15.5,9.9,44,29,15,0.00,0.00,8,3,15,0.00
2013-4-22,63.5,48.7,38.3,28.4,22.6,15.3,59,37,18,0.00,0.00,8,3,12,0.00
2013-4-23,59.4,45.7,38.7,36.4,29.5,23.9,69,53,37,0.00,0.00,8,4,11,0.00
2013-4-24,74.8,55.7,41.5,47.7,37.6,33.4,76,54,27,0.00,0.00,8,2,13,0.00
2013-4-25,73.9,57.3,44.6,48.2,23.5,13.0,67,30,13,0.00,0.00,15,4,17,0.00
2013-4-26,74.5,57.7,46.9,28.0,22.2,13.3,40,27,13,0.00,0.00,9,3,11,0.00
2013-4-27,77.7,59.4,43.7,26.5,22.6,16.9,41,26,14,0.00,0.00,6,2,9,0.00
2013-4-28,73.6,59.4,45.5,31.1,25.9,20.1,50,29,17,0.00,0.00,6,2,12,0.00
2013-4-29,56.1,54.5,53.1,48.0,40.4,25.5,83,60,31,0.00,0.00,5,1,9,0.08
2013-4-30,71.4,59.5,51.6,46.7,30.9,13.9,80,40,14,0.00,0.00,7,2,11,0.00
2013-5-1,72.1,57.1,42.8,36.2,27.2,19.5,53,34,14,0.00,0.00,8,2,11,0.00
2013-5-2,79.5,61.1,45.1,39.4,33.2,25.0,77,41,15,0.00,0.00,6,1,9,0.00
2013-5-3,72.1,59.1,50.9,37.4,30.1,23.2,59,35,16,0.00,0.00,8,2,9,0.00
2013-5-4,73.4,58.0,45.9,40.8,34.9,30.0,75,47,22,0.00,0.00,6,2,10,0.00
2013-5-5,67.6,55.0,45.3,37.1,33.2,26.8,70,47,23,0.00,0.00,8,2,10,0.00
2013-5-6,72.5,58.1,44.8,45.7,40.4,36.5,76,54,31,0.00,0.00,6,1,9,0.00
2013-5-7,76.5,64.3,49.6,53.6,45.5,38.6,82,54,31,0.00,0.00,8,2,9,0.00
2013-5-8,66.7,61.6,56.3,61.6,57.1,52.1,98,86,70,0.00,0.00,5,1,8,1.50
2013-5-9,70.2,60.4,53.6,57.7,51.8,44.8,96,76,42,0.00,0.00,5,0,6,0.35
2013-5-10,80.2,67.6,55.2,54.1,48.3,38.1,91,56,23,0.00,0.00,5,1,9,0.00
2013-5-11,72.1,65.2,61.9,62.3,60.5,53.9,98,86,65,0.00,0.00,5,1,11,0.67
2013-5-12,67.8,60.5,50.2,61.8,31.1,13.6,98,38,15,0.00,0.00,10,4,17,0.00
2013-5-13,59.0,49.8,43.7,27.1,21.1,16.9,49,33,22,0.00,0.00,11,3,13,0.00
2013-5-14,64.9,51.1,38.7,30.2,22.4,14.3,70,36,15,0.00,0.00,8,2,13,0.00
2013-5-15,70.7,55.5,44.1,50.4,35.7,23.9,62,48,34,0.00,0.00,6,1,11,0.00
2013-5-16,82.9,70.8,57.0,52.6,38.3,24.6,72,35,15,0.00,0.00,8,2,11,0.00
2013-5-17,73.8,64.4,56.8,37.7,31.5,25.4,46,30,18,0.00,0.00,10,2,11,0.00
2013-5-18,66.2,59.0,50.9,50.6,43.0,34.9,71,57,33,0.00,0.00,3,0,6,0.00
2013-5-19,59.0,57.6,55.8,57.1,54.8,47.4,97,91,68,0.00,0.00,4,0,6,0.43
2013-5-20,80.8,67.4,57.6,62.2,58.4,54.9,98,76,42,0.00,0.00,6,1,8,0.00
2013-5-21,87.3,74.7,63.5,66.2,61.2,57.1,98,67,37,0.00,0.00,7,2,10,0.00
2013-5-22,83.3,71.3,62.4,66.3,62.2,57.0,89,74,49,0.00,0.00,5,1,8,0.00
2013-5-23,74.7,69.7,67.1,69.0,67.0,65.3,98,91,78,0.00,0.00,5,1,10,2.01
2013-5-24,66.9,55.4,45.7,66.3,51.3,38.2,98,86,60,0.00,0.00,6,2,15,0.71
2013-5-25,51.8,48.3,45.0,43.4,38.9,30.0,93,71,47,0.00,0.00,10,4,15,0.28
2013-5-26,67.6,55.7,45.5,33.1,28.9,23.3,60,38,23,0.00,0.00,10,4,17,0.00
2013-5-27,77.0,62.9,48.0,34.7,28.2,24.4,50,29,15,0.00,0.00,6,2,10,0.00
2013-5-28,65.8,58.1,52.3,56.5,47.4,33.0,95,71,36,0.00,0.00,3,0,5,0.43
2013-5-29,82.6,69.6,57.9,63.3,59.0,56.5,98,73,43,0.00,0.00,6,1,11,0.04
2013-5-30,90.3,80.0,68.0,64.2,54.9,45.7,84,47,23,0.00,0.00,8,2,10,0.00
2013-5-31,91.4,80.4,68.2,63.9,54.3,44.1,81,45,21,0.00,0.00,8,1,9,0.00
2013-6-1,89.2,79.1,67.3,63.9,57.1,51.9,83,49,33,0.00,0.00,6,1,11,0.00
2013-6-2,86.7,77.0,71.1,69.5,61.8,55.2,95,63,36,0.00,0.00,6,2,13,0.16
2013-6-3,78.8,71.4,64.8,70.0,58.9,36.4,98,69,35,0.00,0.00,6,1,11,0.20
2013-6-4,75.7,64.8,55.4,38.2,33.2,27.9,50,32,18,0.00,0.00,8,3,15,0.00
2013-6-5,74.7,64.3,53.1,43.0,34.4,28.6,53,34,22,0.00,0.00,6,1,8,0.00
2013-6-6,70.2,62.1,55.0,59.2,49.0,37.9,92,66,32,0.00,0.00,6,1,10,0.12
2013-6-7,61.9,60.4,59.2,61.0,59.4,57.8,98,97,91,0.00,0.00,6,1,8,2.64
2013-6-8,75.9,66.9,56.8,58.7,54.8,50.7,98,69,42,0.00,0.00,8,2,11,0.04
2013-6-9,81.0,70.3,59.5,59.0,51.4,43.4,91,56,27,0.00,0.00,5,1,9,0.00
2013-6-10,69.3,64.6,61.9,63.4,59.7,53.5,98,85,70,0.00,0.00,6,1,8,0.55
2013-6-11,78.6,69.0,61.9,68.5,59.4,52.2,98,74,46,0.00,0.00,9,3,17,0.12
2013-6-12,76.1,71.4,62.2,50.7,44.8,41.7,66,40,31,0.00,0.00,8,2,13,0.00
2013-6-13,62.4,60.1,55.9,61.6,56.6,51.4,97,89,69,0.00,0.00,6,1,11,1.10
2013-6-14,72.0,60.7,53.1,53.3,49.7,43.9,93,70,39,0.00,0.00,8,3,11,0.43
2013-6-15,80.6,68.6,58.5,53.5,44.8,34.9,80,48,20,0.00,0.00,5,2,9,0.00
2013-6-16,78.6,68.5,57.9,58.3,48.7,43.0,73,51,31,0.00,0.00,8,1,15,0.00
2013-6-17,85.3,78.6,65.8,63.1,52.9,46.7,91,43,29,0.00,0.00,8,2,13,0.00
2013-6-18,83.1,69.6,62.8,64.1,57.8,51.8,94,69,35,0.00,0.00,4,0,10,1.18
2013-6-19,77.4,67.2,57.2,59.9,44.8,32.4,91,50,22,0.00,0.00,6,2,8,0.00
2013-6-20,80.2,68.8,56.1,53.5,47.2,40.6,81,50,25,0.00,0.00,6,1,8,0.00
2013-6-21,82.2,73.1,61.0,50.3,46.8,42.6,62,41,29,0.00,0.00,6,1,8,0.00
2013-6-22,83.5,73.6,61.7,55.0,50.2,45.8,70,45,31,0.00,0.00,8,1,11,0.00
2013-6-23,87.6,77.4,66.2,64.6,58.6,52.0,81,55,34,0.00,0.00,6,2,10,0.00
2013-6-24,91.2,80.4,71.8,69.2,60.6,51.8,90,55,28,0.00,0.00,6,1,11,0.00
2013-6-25,89.4,79.0,68.7,64.9,58.9,52.4,84,53,29,0.00,0.00,8,2,14,0.00
2013-6-26,82.2,77.1,72.3,63.1,59.8,54.8,70,56,41,0.00,0.00,6,2,11,0.00
2013-6-27,85.5,76.3,68.5,71.5,63.4,58.7,98,67,41,0.00,0.00,7,2,11,1.26
2013-6-28,85.8,76.1,70.9,71.4,63.7,53.9,98,70,36,0.00,0.00,9,2,13,0.16
2013-6-29,86.7,75.5,68.7,63.7,58.8,47.6,82,59,28,0.00,0.00,6,1,11,0.00
2013-6-30,85.1,75.2,67.3,69.3,65.4,61.9,90,73,46,0.00,0.00,5,1,7,0.00
2013-7-1,75.6,73.5,70.3,72.7,70.6,68.3,96,91,85,0.00,0.00,4,0,6,1.22
2013-7-2,82.0,75.6,72.1,74.4,70.3,66.6,98,84,61,0.00,0.00,4,1,8,0.24
2013-7-3,84.0,76.5,71.1,72.4,67.7,64.1,91,76,53,0.00,0.00,5,1,7,0.00
2013-7-4,88.2,80.6,73.2,73.5,66.8,60.4,98,66,40,0.00,0.00,6,2,10,0.00
2013-7-5,90.7,82.4,72.9,70.2,63.5,56.7,90,56,33,0.00,0.00,9,2,10,0.00
2013-7-6,90.9,82.2,74.5,70.0,64.7,57.4,86,58,35,0.00,0.00,6,1,11,0.00
2013-7-7,91.8,83.4,72.5,71.4,65.5,58.1,89,58,33,0.00,0.00,6,2,11,0.08
2013-7-8,88.0,77.8,69.6,67.4,61.2,52.7,90,61,33,0.00,0.00,5,2,9,0.00
2013-7-9,87.8,79.2,70.2,65.8,61.0,55.1,85,56,34,0.00,0.00,9,1,10,0.00
2013-7-10,85.1,78.2,72.7,78.6,67.4,60.0,98,71,44,0.00,0.00,6,2,11,0.00
2013-7-11,83.8,76.9,70.7,72.6,62.5,52.2,91,63,34,0.00,0.00,6,1,7,0.00
2013-7-12,78.1,72.5,67.5,66.3,59.2,53.5,94,64,48,0.00,0.00,6,1,8,0.12
2013-7-13,78.8,71.5,66.0,73.4,68.8,64.5,98,91,74,0.00,0.00,3,0,6,0.08
2013-7-14,89.8,79.8,72.1,74.4,66.4,58.2,98,68,35,0.00,0.00,6,1,11,0.00
2013-7-15,93.0,83.1,75.2,67.8,63.1,56.3,76,54,30,0.00,0.00,5,1,8,0.00
2013-7-16,92.8,83.0,73.0,65.9,58.7,52.5,67,47,26,0.00,0.00,6,1,8,0.00
2013-7-17,94.3,83.5,73.2,65.7,60.2,45.0,77,49,20,0.00,0.00,6,1,8,0.00
2013-7-18,94.1,83.2,76.3,70.0,64.2,55.3,70,55,28,0.00,0.00,6,1,8,0.00
2013-7-19,94.8,86.5,76.8,71.6,64.7,58.0,83,51,30,0.00,0.00,8,2,13,0.00
2013-7-20,91.2,83.2,76.5,68.4,61.9,55.5,68,50,31,0.00,0.00,8,3,17,0.00
2013-7-21,86.5,78.6,72.7,66.9,56.4,48.7,76,49,29,0.00,0.00,4,1,8,0.00
2013-7-22,85.1,74.7,70.0,73.9,64.9,57.3,98,73,45,0.00,0.00,7,1,11,0.94
2013-7-23,85.8,76.3,71.4,73.2,68.4,58.4,98,79,41,0.00,0.00,8,1,13,1.26
2013-7-24,81.1,73.9,66.6,67.0,55.8,44.4,84,56,31,0.00,0.00,7,2,11,0.00
2013-7-25,67.8,65.1,62.1,55.0,46.2,39.8,68,51,44,0.00,0.00,5,2,6,0.00
2013-7-26,82.0,72.7,64.8,57.5,50.7,45.8,77,48,29,0.00,0.00,6,2,8,0.00
2013-7-27,84.0,73.6,63.0,59.0,52.7,47.5,82,51,29,0.00,0.00,6,1,9,0.00
2013-7-28,76.8,70.9,66.4,69.4,63.2,54.2,98,78,50,0.00,0.00,4,1,8,0.35
2013-7-29,82.4,73.1,66.4,69.2,55.5,36.6,98,61,20,0.00,0.00,10,1,11,0.00
2013-7-30,79.9,70.2,61.5,52.8,47.8,41.6,71,46,27,0.00,0.00,8,1,11,0.00
2013-7-31,80.6,71.3,61.7,55.2,51.4,46.4,76,52,32,0.00,0.00,4,0,8,0.00
2013-8-1,71.2,67.5,66.2,66.9,61.8,54.2,97,83,60,0.00,0.00,3,0,8,0.39
2013-8-2,81.3,72.2,63.1,66.9,56.9,46.2,98,65,30,0.00,0.00,10,1,13,0.00
2013-8-3,78.4,69.0,64.8,65.3,58.1,48.5,90,70,44,0.00,0.00,7,1,10,0.24
2013-8-4,79.0,69.5,61.0,61.5,47.9,39.1,85,50,26,0.00,0.00,8,2,13,0.00
2013-8-5,78.6,66.6,58.3,47.7,41.4,31.1,68,43,21,0.00,0.00,8,2,8,0.00
2013-8-6,80.2,68.5,57.2,52.9,46.6,37.8,74,49,23,0.00,0.00,6,1,9,0.00
2013-8-7,76.3,69.5,64.9,66.9,58.9,53.2,90,70,47,0.00,0.00,5,1,8,0.04
2013-8-8,82.0,72.1,68.9,73.6,67.9,60.0,97,88,53,0.00,0.00,4,0,10,0.71
2013-8-9,83.5,74.7,71.1,74.1,70.4,61.3,98,88,48,0.00,0.00,7,1,12,0.35
2013-8-10,84.4,73.9,67.1,70.0,53.1,39.9,94,52,22,0.00,0.00,8,2,13,0.00
2013-8-11,80.1,70.4,61.2,57.2,47.3,40.9,66,46,26,0.00,0.00,5,1,9,0.00
2013-8-12,82.9,72.8,66.6,63.6,55.2,42.7,89,58,26,0.00,0.00,4,0,8,0.04
2013-8-13,79.5,70.3,66.4,68.9,62.8,56.8,98,79,47,0.00,0.00,6,0,17,1.30
2013-8-14,74.7,64.7,58.1,64.3,42.1,34.7,93,46,31,0.00,0.00,10,3,15,0.00
2013-8-15,78.1,65.5,56.5,49.7,42.1,33.7,71,46,21,0.00,0.00,8,1,11,0.00
2013-8-16,81.0,67.5,57.2,54.0,46.0,34.7,80,51,21,0.00,0.00,4,0,8,0.00
2013-8-17,82.2,70.3,59.5,55.6,48.5,39.3,75,50,23,0.00,0.00,4,0,5,0.00
2013-8-18,74.7,68.9,63.5,59.2,53.5,47.4,72,59,43,0.00,0.00,3,0,4,0.00
2013-8-19,78.3,70.6,62.8,60.7,55.1,47.0,90,61,34,0.00,0.00,5,1,7,0.00
2013-8-20,87.1,76.1,65.1,61.5,55.5,46.5,82,53,27,0.00,0.00,6,1,8,0.00
2013-8-21,87.6,76.7,65.5,60.7,53.6,44.2,81,49,23,0.00,0.00,5,1,8,0.00
2013-8-22,78.1,71.9,69.4,69.9,65.8,58.6,95,82,64,0.00,0.00,3,0,6,0.20
2013-8-23,83.5,73.1,66.6,63.9,51.6,40.2,80,50,26,0.00,0.00,6,2,9,0.00
2013-8-24,84.2,70.5,59.2,50.1,41.5,34.0,61,38,19,0.00,0.00,5,1,8,0.00
2013-8-25,84.0,70.5,58.5,52.8,44.7,35.6,79,45,20,0.00,0.00,6,1,9,0.00
2013-8-26,76.6,71.4,65.8,66.8,53.4,45.1,89,54,43,0.00,0.00,4,1,8,0.08
2013-8-27,86.7,76.4,69.1,68.5,61.7,53.2,94,65,35,0.00,0.00,6,2,10,0.00
2013-8-28,85.5,73.0,67.6,70.7,66.2,58.0,94,81,41,0.00,0.00,4,0,8,0.20
2013-8-29,80.1,72.2,67.5,69.3,63.3,57.2,96,76,46,0.00,0.00,4,0,6,0.00
2013-8-30,84.7,75.2,68.4,66.4,60.2,52.7,82,62,34,0.00,0.00,6,1,10,0.00
2013-8-31,84.9,76.9,70.7,68.5,65.5,60.6,89,69,45,0.00,0.00,5,1,11,0.00
2013-9-1,82.2,75.8,71.8,74.7,69.2,65.4,96,81,57,0.00,0.00,3,0,6,1.10
2013-9-2,80.1,74.5,71.2,73.3,69.5,62.7,98,85,57,0.00,0.00,4,0,6,0.00
2013-9-3,80.2,71.9,65.3,69.3,55.8,43.7,98,63,30,0.00,0.00,6,2,11,0.24
2013-9-4,84.2,70.5,60.8,54.2,47.3,37.2,76,48,20,0.00,0.00,8,2,11,0.00
2013-9-5,76.3,67.8,59.4,54.6,43.2,28.2,72,44,18,0.00,0.00,6,1,11,0.00
2013-9-6,76.6,62.1,53.1,38.5,33.4,28.7,52,36,20,0.00,0.00,6,1,8,0.00
2013-9-7,79.2,64.6,51.6,45.9,39.9,31.6,76,45,20,0.00,0.00,6,1,8,0.00
2013-9-8,80.8,69.8,61.2,53.1,43.5,25.7,65,41,15,0.00,0.00,6,2,13,0.00
2013-9-9,72.5,62.6,52.5,51.1,39.1,33.3,61,43,25,0.00,0.00,6,1,8,0.00
2013-9-10,85.6,72.7,64.8,68.0,62.0,51.3,95,71,45,0.00,0.00,7,1,8,0.00
2013-9-11,93.0,81.8,71.4,70.7,64.9,57.3,94,60,35,0.00,0.00,5,1,10,0.00
2013-9-12,85.1,75.4,70.5,71.0,65.9,57.8,89,73,46,0.00,0.00,4,0,10,0.51
2013-9-13,75.7,67.2,57.6,66.3,51.4,38.5,95,61,32,0.00,0.00,8,2,12,0.00
2013-9-14,67.1,58.8,52.7,39.2,36.5,34.5,60,44,31,0.00,0.00,7,2,11,0.00
2013-9-15,72.0,59.7,47.8,44.1,37.3,29.8,74,47,22,0.00,0.00,6,1,8,0.00
2013-9-16,73.4,61.9,56.1,55.5,45.3,38.2,88,57,29,0.00,0.00,5,2,12,0.00
2013-9-17,70.5,56.8,47.3,38.0,30.7,26.1,62,39,22,0.00,0.00,5,2,12,0.00
2013-9-18,74.3,58.2,46.0,42.2,36.5,29.9,81,50,22,0.00,0.00,4,0,6,0.00
2013-9-19,78.3,61.8,49.6,45.5,40.8,32.8,81,52,21,0.00,0.00,5,1,8,0.00
2013-9-20,81.0,64.5,53.6,53.2,47.6,42.7,82,58,27,0.00,0.00,6,1,10,0.00
2013-9-21,75.0,64.8,55.8,68.3,56.5,50.3,98,76,47,0.00,0.00,6,1,11,0.63
2013-9-22,67.3,61.0,53.6,60.1,43.7,29.8,95,57,30,0.00,0.00,9,3,13,0.28
2013-9-23,69.1,56.6,48.0,34.8,32.4,28.0,60,41,24,0.00,0.00,11,2,11,0.00
2013-9-24,74.7,57.3,44.1,37.3,33.4,28.9,73,45,21,0.00,0.00,8,1,9,0.00
2013-9-25,75.4,59.9,48.6,46.6,36.9,31.6,69,45,23,0.00,0.00,4,0,6,0.00
2013-9-26,73.8,60.7,52.7,52.3,46.1,41.5,81,61,32,0.00,0.00,4,1,6,0.00
2013-9-27,70.3,60.6,50.7,47.3,43.8,38.7,79,56,33,0.00,0.00,6,1,8,0.00
2013-9-28,75.4,63.8,52.9,50.7,43.9,35.4,82,52,24,0.00,0.00,6,1,6,0.00
2013-9-29,73.9,59.8,51.3,52.1,45.8,39.3,83,63,31,0.00,0.00,4,0,5,0.00
2013-9-30,75.7,60.7,50.7,51.1,44.6,35.1,83,60,24,0.00,0.00,4,0,6,0.00
2013-10-1,80.2,65.1,55.0,53.9,48.0,40.1,79,58,24,0.00,0.00,4,0,8,0.00
2013-10-2,83.1,68.3,57.4,54.8,50.8,45.3,83,58,27,0.00,0.00,8,1,13,0.00
2013-10-3,77.5,67.2,57.4,54.4,49.2,41.3,82,56,28,0.00,0.00,3,0,5,0.00
2013-10-4,84.9,70.0,61.2,67.7,58.4,48.1,91,70,30,0.00,0.00,6,1,9,0.04
2013-10-5,79.3,69.7,64.9,65.0,59.3,52.7,92,72,41,0.00,0.00,4,0,6,0.00
2013-10-6,66.4,65.4,64.8,65.4,63.3,60.4,98,93,81,0.00,0.00,3,0,6,0.08
2013-10-7,74.8,65.6,57.9,69.0,60.4,37.2,98,85,46,0.00,0.00,13,2,15,0.55
2013-10-8,69.4,58.1,50.4,43.0,37.7,30.5,69,49,24,0.00,0.00,5,1,8,0.00
2013-10-9,63.5,55.5,49.6,41.1,34.8,30.2,61,46,34,0.00,0.00,5,1,8,0.00
2013-10-10,62.4,56.1,51.6,45.1,41.5,37.1,67,58,49,0.00,0.00,5,3,10,0.00
2013-10-11,65.8,61.5,58.5,53.8,47.7,42.2,67,61,54,0.00,0.00,6,3,11,0.00
2013-10-12,78.8,66.8,60.6,50.6,39.0,24.6,65,40,15,0.00,0.00,6,3,13,0.00
2013-10-13,69.3,58.4,52.9,44.6,40.9,37.0,72,53,32,0.00,0.00,6,2,10,0.00
2013-10-14,72.3,57.9,51.8,47.9,42.0,32.8,78,59,24,0.00,0.00,4,0,6,0.00
2013-10-15,76.8,59.3,49.6,52.5,44.2,39.6,84,61,27,0.00,0.00,5,1,8,0.00
2013-10-16,66.4,58.8,52.2,55.7,48.0,43.5,84,68,49,0.00,0.00,4,0,6,0.00
2013-10-17,76.5,65.3,60.1,61.6,55.1,45.0,97,73,34,0.00,0.00,5,1,8,0.00
2013-10-18,70.5,61.3,54.0,61.3,36.1,27.5,91,42,22,0.00,0.00,10,4,13,0.00
2013-10-19,64.2,55.6,46.0,48.8,36.3,28.1,78,50,27,0.00,0.00,4,1,8,0.00
2013-10-20,65.8,54.6,47.3,49.2,30.8,19.4,84,45,18,0.00,0.00,9,2,15,0.00
2013-10-21,71.1,55.0,43.3,34.9,29.2,20.3,64,41,17,0.00,0.00,6,1,9,0.00
2013-10-22,62.6,54.0,47.3,43.9,36.5,27.3,76,53,38,0.00,0.00,5,1,8,0.00
2013-10-23,58.1,47.7,40.3,30.9,26.4,21.8,58,44,26,0.00,0.00,6,1,10,0.00
2013-10-24,56.8,45.4,39.4,27.2,20.8,14.1,58,39,22,0.00,0.00,9,4,16,0.00
2013-10-25,54.1,44.2,36.9,24.4,20.9,17.0,58,41,26,0.00,0.00,14,2,16,0.00
2013-10-26,57.7,45.9,35.4,28.3,21.6,15.2,69,41,19,0.00,0.00,10,2,17,0.00
2013-10-27,59.4,50.2,44.6,23.6,20.7,17.1,41,32,22,0.00,0.00,8,3,16,0.00
2013-10-28,68.4,49.0,37.0,26.9,23.2,18.0,63,39,17,0.00,0.00,11,2,13,0.00
2013-10-29,64.4,47.9,41.5,24.9,21.4,18.7,44,36,19,0.00,0.00,5,1,7,0.00
2013-10-30,55.9,47.3,40.5,42.0,31.9,21.4,77,55,44,0.00,0.00,3,0,6,0.00
2013-10-31,61.9,53.1,45.9,58.5,48.7,39.9,94,85,65,0.00,0.00,8,0,10,0.00
2013-11-1,71.2,63.4,54.5,61.1,50.7,36.1,93,67,28,0.00,0.00,15,4,25,0.24
2013-11-2,70.2,56.3,49.8,48.1,36.7,26.6,82,52,23,0.00,0.00,7,1,15,0.00
2013-11-3,57.2,45.3,35.2,36.5,22.5,10.6,63,41,23,0.00,0.00,8,3,15,0.00
2013-11-4,55.9,39.9,32.2,14.9,8.9,3.0,41,29,15,0.00,0.00,8,2,9,0.00
2013-11-5,55.2,45.5,35.2,33.7,24.7,14.4,62,44,36,0.00,0.00,5,0,6,0.00
2013-11-6,59.2,52.1,43.3,47.1,36.3,32.1,77,56,37,0.00,0.00,6,1,7,0.00
2013-11-7,59.7,52.1,41.7,55.2,41.3,20.8,91,69,39,0.00,0.00,6,2,13,0.04
2013-11-8,50.5,43.0,38.3,23.3,17.3,12.0,52,36,24,0.00,0.00,13,4,15,0.00
2013-11-9,56.3,43.4,35.6,21.3,16.5,11.0,49,35,17,0.00,0.00,6,2,11,0.00
2013-11-10,59.7,47.3,39.7,32.1,22.5,17.4,54,38,22,0.00,0.00,12,4,26,0.00
2013-11-11,51.4,46.9,40.6,21.3,17.3,13.5,36,30,26,0.00,0.00,11,4,14,0.00
2013-11-12,49.6,37.6,30.4,27.1,14.8,7.2,68,40,30,0.00,0.00,11,5,15,0.00
2013-11-13,49.3,33.6,26.8,9.6,6.2,1.3,42,32,16,0.00,0.00,9,3,15,0.00
2013-11-14,56.7,40.8,31.3,10.7,7.2,0.5,40,27,15,0.00,0.00,8,2,14,0.00
2013-11-15,58.8,45.0,34.5,18.9,11.7,3.0,40,27,14,0.00,0.00,6,1,6,0.00
2013-11-16,67.3,51.0,42.1,39.8,28.6,13.6,75,45,23,0.00,0.00,6,1,8,0.00
2013-11-17,58.5,52.8,46.9,57.2,49.1,39.8,98,87,75,0.00,0.00,6,0,10,0.00
2013-11-18,68.2,58.3,48.4,60.6,32.4,12.8,98,45,16,0.00,0.00,17,6,19,0.24
2013-11-19,54.9,43.1,34.7,21.7,15.7,13.2,41,33,25,0.00,0.00,15,6,22,0.00
2013-11-20,58.6,38.6,30.4,13.4,8.8,-0.1,44,31,14,0.00,0.00,11,4,16,0.00
2013-11-21,53.8,40.3,26.8,34.3,19.7,8.3,61,44,29,0.00,0.00,6,1,9,0.00
2013-11-22,59.2,50.5,46.2,45.7,39.9,34.3,92,68,45,0.00,0.00,10,2,12,0.00
2013-11-23,52.7,40.9,27.5,39.2,14.5,-2.9,75,36,18,0.00,0.00,15,6,26,0.00
2013-11-24,33.6,24.8,21.2,0.8,-4.0,-7.4,33,28,20,0.00,0.00,13,1,18,0.00
2013-11-25,42.1,29.0,21.0,4.9,1.7,-3.1,40,31,21,0.00,0.00,0,0,6,0.00
2013-11-26,39.9,34.7,30.7,37.5,16.2,3.7,91,50,30,0.00,0.00,5,1,5,0.51
2013-11-27,58.1,44.3,32.4,57.5,37.7,11.3,98,79,41,0.00,0.00,12,4,18,2.28
2013-11-28,44.1,31.6,27.7,13.3,6.1,-0.7,52,35,18,0.00,0.00,17,5,27,0.00
2013-11-29,44.6,32.2,26.6,14.4,10.1,5.3,53,40,27,0.00,0.00,8,2,10,0.00
2013-11-30,41.7,30.4,22.3,17.6,7.8,3.0,49,39,26,0.00,0.00,6,2,8,0.00
2013-12-1,55.6,40.6,31.3,26.9,22.3,17.8,74,50,27,0.00,0.00,4,0,6,0.00
2013-12-2,52.2,40.5,34.3,29.6,25.5,22.2,71,56,32,0.00,0.00,4,0,5,0.00
2013-12-3,59.2,43.1,32.9,32.8,27.1,23.2,87,58,25,0.00,0.00,6,1,7,0.00
2013-12-4,57.9,44.4,34.2,34.4,29.2,27.4,79,57,32,0.00,0.00,4,0,6,0.00
2013-12-5,53.8,49.8,45.9,53.2,46.8,34.6,98,90,62,0.00,0.00,4,0,4,0.04
2013-12-6,55.9,46.2,38.1,55.4,41.0,32.8,98,82,71,0.00,0.00,6,1,11,0.79
2013-12-7,49.5,37.0,29.8,32.9,18.3,6.3,82,50,24,0.00,0.00,8,3,14,0.04
2013-12-8,33.1,30.0,26.6,23.6,11.2,6.1,75,46,34,0.00,0.00,8,2,15,0.00
2013-12-9,36.3,33.8,30.2,33.4,29.6,23.4,89,84,75,0.00,0.00,6,2,8,0.08
2013-12-10,36.9,31.8,25.3,30.2,22.5,7.0,89,69,45,0.00,0.00,0,0,2,0.00
2013-12-11,37.0,27.4,21.9,9.2,6.5,4.5,54,41,30,0.00,0.00,0,0,0,0.00
2013-12-12,35.1,24.9,19.8,6.8,-0.8,-6.3,47,33,20,0.00,0.00,11,3,13,0.00
2013-12-13,38.7,26.5,17.1,9.9,2.3,-4.8,45,35,26,0.00,0.00,11,4,15,0.00
2013-12-14,28.6,24.0,19.2,18.9,10.7,8.6,75,57,45,0.00,0.00,8,4,11,0.00
2013-12-15,38.8,32.6,26.4,27.7,20.3,10.3,87,62,41,0.00,0.00,10,4,15,0.04
2013-12-16,37.0,26.9,19.2,12.9,1.9,-5.9,51,34,22,0.00,0.00,11,4,18,0.00
2013-12-17,26.8,22.3,16.3,18.3,9.7,0.1,70,58,45,0.00,0.00,5,2,8,0.00
2013-12-18,41.0,29.0,20.3,13.6,10.5,8.2,69,47,29,0.00,0.00,11,4,15,0.00
2013-12-19,48.0,34.2,23.0,18.0,13.2,8.6,58,43,27,0.00,0.00,6,2,11,0.04
2013-12-20,50.2,41.8,34.0,22.6,20.5,17.8,57,43,30,0.00,0.00,6,2,8,0.12
2013-12-21,60.4,49.4,40.6,48.1,35.1,24.0,80,59,36,0.00,0.00,6,2,10,0.00
2013-12-22,66.6,60.9,54.1,60.9,53.4,47.7,98,77,55,0.00,0.00,8,4,13,0.04
2013-12-23,58.6,52.9,38.8,57.5,47.9,20.3,98,84,46,0.00,0.00,9,1,13,0.67
2013-12-24,48.2,35.1,23.5,24.5,12.5,-0.7,78,40,21,0.00,0.00,12,4,15,0.00
2013-12-25,35.1,25.5,17.6,5.4,-0.9,-4.7,40,32,22,0.00,0.00,10,2,15,0.00
2013-12-26,39.7,30.3,24.4,17.8,12.8,4.5,59,48,39,0.00,0.00,8,2,11,0.00
2013-12-27,39.4,33.4,27.3,14.3,11.6,8.0,54,41,29,0.00,0.00,8,3,13,0.00
2013-12-28,55.9,40.1,27.9,17.9,14.4,12.0,55,37,20,0.00,0.00,8,2,13,0.00
2013-12-29,43.0,39.6,37.6,39.5,27.7,17.4,95,65,40,0.00,0.00,8,2,15,1.06
2013-12-30,41.2,33.3,21.9,31.9,18.5,-1.4,79,56,33,0.00,0.00,8,3,13,0.00
2013-12-31,30.2,25.0,20.3,16.5,2.1,-2.2,60,37,32,0.00,0.00,11,4,12,0.00
2014-1-1,34.5,26.9,20.5,10.7,4.1,-2.9,45,37,30,0.00,0.00,6,2,10,0.00
2014-1-2,29.7,24.1,13.8,13.8,9.7,1.0,64,54,44,0.00,0.00,9,5,13,0.00